Time;durP1;ratioP1;P1;durP2;ratioP2;P2;SDS_P1;SDS_P2;PMS_P1;PMS_P2;Temp;Humidity;BMP_temperature;BMP_pressure;BME280_temperature;BME280_humidity;BME280_pressure;Samples;Min_cycle;Max_cycle;Signal;HPM_P1;HPM_P2
2021/12/27 00:00:02;;;;;;;21.38;10.98;;;-0.80;99.90;;;;;;5093761;28;20051;-78
2021/12/27 00:02:28;;;;;;;21.75;11.13;;;-0.80;99.90;;;;;;5095367;28;20075;-78
2021/12/27 00:04:53;;;;;;;21.85;11.07;;;-0.80;99.90;;;;;;5093865;28;20434;-78
2021/12/27 00:07:19;;;;;;;22.27;11.65;;;-0.80;99.90;;;;;;5094752;28;20483;-78
2021/12/27 00:09:45;;;;;;;22.52;11.25;;;-0.80;99.90;;;;;;5094638;28;20036;-78
2021/12/27 00:12:10;;;;;;;22.52;11.40;;;-0.70;99.90;;;;;;5093382;28;20044;-78
2021/12/27 00:14:36;;;;;;;22.33;11.52;;;-0.70;99.90;;;;;;5093639;28;20048;-79
2021/12/27 00:17:02;;;;;;;23.95;11.85;;;-0.70;99.90;;;;;;5093764;28;20444;-78
2021/12/27 00:19:27;;;;;;;23.40;11.63;;;-0.60;99.90;;;;;;5093875;28;20047;-78
2021/12/27 00:21:53;;;;;;;22.00;10.70;;;-0.60;99.90;;;;;;5092407;28;20048;-78
2021/12/27 00:24:19;;;;;;;23.30;11.30;;;-0.60;99.90;;;;;;5092549;28;20168;-78
2021/12/27 00:26:44;;;;;;;20.38;11.40;;;-0.60;99.90;;;;;;5093806;28;20040;-78
2021/12/27 00:29:11;;;;;;;24.83;11.85;;;-0.60;99.90;;;;;;5092177;28;20051;-79
2021/12/27 00:31:36;;;;;;;21.98;11.20;;;-0.60;99.90;;;;;;5093603;28;20096;-78
2021/12/27 00:34:02;;;;;;;22.50;11.48;;;-0.60;99.90;;;;;;5093538;28;20040;-78
2021/12/27 00:36:28;;;;;;;22.50;11.18;;;-0.50;99.90;;;;;;5092196;28;20090;-78
2021/12/27 00:38:53;;;;;;;24.73;12.48;;;-0.50;99.90;;;;;;5093298;28;20494;-79
2021/12/27 00:41:19;;;;;;;22.13;10.68;;;-0.50;99.90;;;;;;5093606;28;20075;-78
2021/12/27 00:43:45;;;;;;;24.05;11.68;;;-0.50;99.90;;;;;;5093484;28;20135;-78
2021/12/27 00:46:10;;;;;;;22.80;11.50;;;-0.50;99.90;;;;;;5093503;28;20135;-78
2021/12/27 00:48:36;;;;;;;21.48;10.85;;;-0.40;99.90;;;;;;5092682;28;20454;-78
2021/12/27 00:51:02;;;;;;;21.95;11.23;;;-0.40;99.90;;;;;;5093570;28;20047;-78
2021/12/27 00:53:28;;;;;;;26.50;12.13;;;-0.40;99.90;;;;;;5093287;28;20040;-78
2021/12/27 00:55:54;;;;;;;22.58;11.18;;;-0.40;99.90;;;;;;5091591;28;20044;-78
2021/12/27 00:58:19;;;;;;;22.10;11.88;;;-0.40;99.90;;;;;;5092933;28;20106;-78
2021/12/27 01:00:45;;;;;;;23.17;11.63;;;-0.40;99.90;;;;;;5093130;28;20071;-78
2021/12/27 01:03:11;;;;;;;23.90;11.85;;;-0.40;99.90;;;;;;5092968;28;20135;-78
2021/12/27 01:05:37;;;;;;;24.52;11.90;;;-0.40;99.90;;;;;;5093082;28;20119;-79
2021/12/27 01:08:05;;;;;;;23.15;11.57;;;-0.30;99.90;;;;;;5091897;28;20111;-78
2021/12/27 01:10:54;;;;;;;22.05;11.10;;;-0.30;99.90;;;;;;5091611;28;20095;-79
2021/12/27 01:15:51;;;;;;;24.70;11.77;;;-0.30;99.90;;;;;;5093828;28;20048;-78
2021/12/27 01:18:19;;;;;;;21.88;11.18;;;-0.30;99.90;;;;;;5093849;28;20052;-78
2021/12/27 01:20:45;;;;;;;22.23;11.20;;;-0.20;99.90;;;;;;5093775;28;20394;-78
2021/12/27 01:23:12;;;;;;;24.98;12.38;;;-0.30;99.90;;;;;;5093739;28;20046;-78
2021/12/27 01:25:37;;;;;;;24.48;12.32;;;-0.20;99.90;;;;;;5093930;28;20083;-79
2021/12/27 01:28:05;;;;;;;22.75;11.60;;;-0.20;99.90;;;;;;5093721;28;20071;-78
2021/12/27 01:30:36;;;;;;;25.75;11.73;;;-0.20;99.90;;;;;;5093638;28;20044;-78
2021/12/27 01:33:03;;;;;;;24.08;12.27;;;-0.20;99.90;;;;;;5093931;28;20036;-78
2021/12/27 01:35:29;;;;;;;22.90;11.38;;;-0.20;99.90;;;;;;5092429;28;20059;-78
2021/12/27 01:37:55;;;;;;;23.08;11.40;;;-0.20;99.90;;;;;;5093537;28;20127;-78
2021/12/27 01:40:25;;;;;;;24.10;12.02;;;-0.10;99.90;;;;;;5092249;28;20088;-78
2021/12/27 01:43:05;;;;;;;26.83;12.27;;;-0.10;99.90;;;;;;5092908;28;20075;-78
2021/12/27 01:45:32;;;;;;;26.08;12.32;;;-0.10;99.90;;;;;;5109408;28;20048;-78
2021/12/27 01:47:58;;;;;;;24.42;11.82;;;-0.10;99.90;;;;;;5092650;28;20510;-78
2021/12/27 01:50:24;;;;;;;23.00;11.70;;;-0.10;99.90;;;;;;5093421;28;20071;-78
2021/12/27 01:52:50;;;;;;;21.63;11.88;;;-0.20;99.90;;;;;;5093672;28;20120;-78
2021/12/27 01:55:16;;;;;;;25.38;12.50;;;-0.10;99.90;;;;;;5093607;28;20036;-78
2021/12/27 01:57:42;;;;;;;24.65;12.20;;;-0.20;99.90;;;;;;5093496;28;20101;-78
2021/12/27 02:00:09;;;;;;;24.20;12.23;;;-0.10;99.90;;;;;;5093303;28;20118;-78
2021/12/27 02:02:35;;;;;;;24.27;12.30;;;-0.10;99.90;;;;;;5093477;28;20054;-78
2021/12/27 02:05:00;;;;;;;26.60;12.40;;;-0.10;99.90;;;;;;5093336;28;20048;-79
2021/12/27 02:07:26;;;;;;;24.88;12.88;;;-0.10;99.90;;;;;;5091913;28;20062;-79
2021/12/27 02:10:13;;;;;;;26.10;12.40;;;-0.10;99.90;;;;;;5095293;28;20055;-78
2021/12/27 02:12:39;;;;;;;26.30;12.70;;;-0.10;99.90;;;;;;5096845;28;20052;-78
2021/12/27 02:15:09;;;;;;;26.83;13.45;;;-0.10;99.90;;;;;;5096873;28;20491;-78
2021/12/27 02:17:37;;;;;;;27.23;12.68;;;-0.10;99.90;;;;;;5095707;28;20048;-79
2021/12/27 02:20:16;;;;;;;23.25;12.77;;;-0.10;99.90;;;;;;5097036;28;20478;-78
2021/12/27 02:22:43;;;;;;;25.42;12.43;;;-0.10;99.90;;;;;;5096947;28;20044;-78
2021/12/27 02:25:09;;;;;;;27.08;13.35;;;0.00;99.90;;;;;;5078970;28;20203;-78
2021/12/27 02:27:35;;;;;;;24.10;12.27;;;-0.10;99.90;;;;;;5097021;28;20036;-78
2021/12/27 02:30:04;;;;;;;25.70;12.88;;;-0.10;99.90;;;;;;5096918;28;20040;-78
2021/12/27 02:32:30;;;;;;;28.13;14.05;;;-0.10;99.90;;;;;;5095747;28;20043;-78
2021/12/27 02:34:56;;;;;;;25.73;13.07;;;0.00;99.90;;;;;;5096929;28;20086;-78
2021/12/27 02:37:22;;;;;;;27.77;12.48;;;-0.10;99.90;;;;;;5096871;28;20040;-78
2021/12/27 02:39:47;;;;;;;24.30;12.30;;;0.00;99.90;;;;;;5095368;28;20048;-78
2021/12/27 02:42:17;;;;;;;25.20;12.68;;;0.00;99.90;;;;;;5096764;28;20447;-78
2021/12/27 02:44:43;;;;;;;27.08;13.05;;;0.00;99.90;;;;;;5096742;28;20048;-78
2021/12/27 02:47:09;;;;;;;25.98;13.13;;;0.00;99.90;;;;;;5096466;28;20131;-78
2021/12/27 02:49:34;;;;;;;25.48;12.57;;;0.00;99.90;;;;;;5096718;28;20071;-78
2021/12/27 02:52:00;;;;;;;24.85;13.45;;;0.00;99.90;;;;;;5096635;28;20189;-78
2021/12/27 02:54:27;;;;;;;26.27;13.45;;;0.00;99.90;;;;;;5096583;28;20105;-78
2021/12/27 02:56:52;;;;;;;25.35;12.65;;;0.00;99.90;;;;;;5094982;28;20054;-78
2021/12/27 02:59:18;;;;;;;28.48;13.85;;;0.10;99.90;;;;;;5096351;28;20127;-78
2021/12/27 03:01:44;;;;;;;24.38;12.70;;;0.10;99.90;;;;;;5096308;28;20098;-78
2021/12/27 03:04:09;;;;;;;26.35;13.57;;;0.10;99.90;;;;;;5096411;28;20044;-78
2021/12/27 03:06:35;;;;;;;27.88;13.57;;;0.00;99.90;;;;;;5095232;28;20047;-79
2021/12/27 03:09:01;;;;;;;27.58;13.57;;;0.00;99.90;;;;;;5095123;28;20076;-78
2021/12/27 03:11:26;;;;;;;30.67;14.15;;;0.10;99.90;;;;;;5096180;28;20040;-78
2021/12/27 03:13:52;;;;;;;24.52;13.55;;;0.10;99.90;;;;;;5095323;28;20109;-78
2021/12/27 03:16:20;;;;;;;25.15;13.23;;;0.10;99.90;;;;;;5094570;28;20052;-78
2021/12/27 03:18:54;;;;;;;29.10;13.88;;;0.10;99.90;;;;;;5095936;28;20060;-78
2021/12/27 03:21:20;;;;;;;26.17;13.60;;;0.10;99.90;;;;;;5094420;28;20048;-78
2021/12/27 03:23:48;;;;;;;29.85;14.27;;;0.10;99.90;;;;;;5096028;28;20130;-78
2021/12/27 03:26:15;;;;;;;26.27;13.00;;;0.10;99.90;;;;;;5095830;28;20059;-78
2021/12/27 03:28:41;;;;;;;30.38;14.48;;;0.10;99.90;;;;;;5094553;28;20123;-78
2021/12/27 03:31:08;;;;;;;30.67;14.82;;;0.10;99.90;;;;;;5094517;28;20162;-78
2021/12/27 03:33:34;;;;;;;27.35;13.88;;;0.10;99.90;;;;;;5077509;28;20048;-78
2021/12/27 03:36:05;;;;;;;32.50;15.68;;;0.10;99.90;;;;;;5095709;28;20119;-78
2021/12/27 03:38:52;;;;;;;32.08;15.57;;;0.10;99.90;;;;;;5095672;28;20051;-78
2021/12/27 03:41:21;;;;;;;30.92;15.10;;;0.10;99.90;;;;;;5095555;28;20485;-78
2021/12/27 03:43:47;;;;;;;32.08;15.27;;;0.10;99.90;;;;;;5095480;28;20074;-78
2021/12/27 03:46:14;;;;;;;29.75;15.02;;;0.10;99.90;;;;;;5094128;28;20044;-78
2021/12/27 03:48:40;;;;;;;33.35;15.55;;;0.10;99.90;;;;;;5094523;28;20039;-78
2021/12/27 03:51:06;;;;;;;33.00;16.02;;;0.10;99.90;;;;;;5093905;28;20130;-78
2021/12/27 03:53:33;;;;;;;33.30;15.55;;;0.10;99.90;;;;;;5095393;28;20039;-78
2021/12/27 03:55:59;;;;;;;40.67;16.98;;;0.00;99.90;;;;;;5093852;28;20052;-78
2021/12/27 03:58:29;;;;;;;35.10;16.10;;;0.00;99.90;;;;;;5094998;28;20047;-78
2021/12/27 04:01:15;;;;;;;42.13;17.42;;;0.00;99.90;;;;;;5095397;28;20079;-78
2021/12/27 04:03:46;;;;;;;36.53;17.45;;;0.00;99.90;;;;;;5095167;28;20058;-78
2021/12/27 04:06:13;;;;;;;38.63;17.92;;;0.00;99.90;;;;;;5093877;28;20055;-78
2021/12/27 04:08:39;;;;;;;35.92;18.30;;;0.00;99.90;;;;;;5093605;28;20044;-78
2021/12/27 04:11:05;;;;;;;37.95;17.50;;;0.00;99.90;;;;;;5093560;28;20093;-78
2021/12/27 04:13:30;;;;;;;40.75;18.73;;;-0.10;99.90;;;;;;5095206;28;20386;-78
2021/12/27 04:15:56;;;;;;;47.80;20.27;;;0.00;99.90;;;;;;5094476;28;20113;-78
2021/12/27 04:18:22;;;;;;;42.95;19.55;;;-0.10;99.90;;;;;;5093670;28;20544;-78
2021/12/27 04:20:48;;;;;;;43.20;19.13;;;-0.10;99.90;;;;;;5093548;28;20524;-78
2021/12/27 04:23:14;;;;;;;41.38;19.13;;;0.00;99.90;;;;;;5094677;28;20078;-78
2021/12/27 04:25:40;;;;;;;40.97;19.63;;;-0.10;99.90;;;;;;5094676;28;20406;-78
2021/12/27 04:28:06;;;;;;;42.97;19.52;;;0.00;99.90;;;;;;5093224;28;20051;-78
2021/12/27 04:30:32;;;;;;;39.00;18.88;;;0.00;99.90;;;;;;5094445;28;20040;-78
2021/12/27 04:32:57;;;;;;;41.40;18.23;;;-0.10;99.90;;;;;;5093883;28;20089;-78
2021/12/27 04:35:23;;;;;;;40.47;18.13;;;0.00;99.90;;;;;;5093375;28;20122;-78
2021/12/27 04:37:50;;;;;;;42.72;18.63;;;0.00;99.90;;;;;;5094405;28;20048;-78
2021/12/27 04:40:18;;;;;;;38.92;18.98;;;0.00;99.90;;;;;;5093384;28;20063;-78
2021/12/27 04:42:51;;;;;;;38.10;18.50;;;0.00;99.90;;;;;;5094507;28;20093;-78
2021/12/27 04:45:17;;;;;;;36.35;17.23;;;0.00;99.90;;;;;;5094419;28;20397;-78
2021/12/27 04:47:43;;;;;;;42.95;19.40;;;0.40;99.90;;;;;;5094398;28;20103;-78
2021/12/27 04:50:10;;;;;;;42.55;19.48;;;0.00;99.90;;;;;;5094385;28;20047;-78
2021/12/27 04:52:35;;;;;;;35.10;17.58;;;0.00;99.90;;;;;;5094261;28;20040;-78
2021/12/27 04:55:01;;;;;;;40.17;17.52;;;0.00;99.90;;;;;;5094178;28;20036;-78
2021/12/27 04:57:28;;;;;;;37.10;18.27;;;0.00;99.90;;;;;;5093831;28;20474;-78
2021/12/27 04:59:54;;;;;;;38.65;18.50;;;0.10;99.90;;;;;;5092747;28;20044;-78
2021/12/27 05:02:19;;;;;;;37.50;18.45;;;0.10;99.90;;;;;;5094148;28;20089;-78
2021/12/27 05:04:45;;;;;;;41.45;19.00;;;0.10;99.90;;;;;;5092716;28;20394;-78
2021/12/27 05:07:11;;;;;;;40.28;18.70;;;0.10;99.90;;;;;;5093993;28;20039;-78
2021/12/27 05:09:36;;;;;;;36.72;17.70;;;0.10;99.90;;;;;;5093992;28;20047;-78
2021/12/27 05:12:02;;;;;;;41.25;18.38;;;0.10;99.90;;;;;;5093590;28;20040;-78
2021/12/27 05:14:28;;;;;;;42.40;18.70;;;0.10;99.90;;;;;;5109509;28;20091;-78
2021/12/27 05:16:54;;;;;;;42.22;19.02;;;0.10;99.90;;;;;;5093751;28;20052;-78
2021/12/27 05:19:20;;;;;;;43.03;18.40;;;0.10;99.90;;;;;;5093978;28;20051;-78
2021/12/27 05:21:45;;;;;;;45.45;18.00;;;0.10;99.90;;;;;;5092573;28;20052;-78
2021/12/27 05:24:12;;;;;;;41.15;19.15;;;0.10;99.90;;;;;;5093925;28;20036;-78
2021/12/27 05:26:38;;;;;;;40.83;18.67;;;0.20;99.90;;;;;;5092369;28;20044;-78
2021/12/27 05:29:04;;;;;;;44.30;18.10;;;0.10;99.90;;;;;;5092390;28;20124;-78
2021/12/27 05:31:29;;;;;;;41.17;18.83;;;0.10;99.90;;;;;;5092314;28;20478;-78
2021/12/27 05:33:55;;;;;;;41.45;18.50;;;0.10;99.90;;;;;;5092576;28;20047;-78
2021/12/27 05:36:21;;;;;;;40.25;18.80;;;0.20;99.90;;;;;;5093624;28;20040;-78
2021/12/27 05:38:46;;;;;;;44.53;19.33;;;0.20;99.90;;;;;;5093673;28;20454;-78
2021/12/27 05:41:12;;;;;;;43.22;19.38;;;0.10;99.90;;;;;;5093526;28;20078;-78
2021/12/27 05:43:38;;;;;;;48.88;20.63;;;0.20;99.90;;;;;;5092135;28;20051;-78
2021/12/27 05:46:04;;;;;;;45.63;20.17;;;0.20;99.90;;;;;;5097781;28;20028;-78
2021/12/27 05:48:30;;;;;;;49.17;20.08;;;0.20;99.90;;;;;;5097936;28;20096;-78
2021/12/27 05:50:56;;;;;;;47.20;19.55;;;0.20;99.90;;;;;;5113691;28;20044;-78
2021/12/27 05:53:21;;;;;;;51.55;19.83;;;0.20;99.90;;;;;;5097745;28;20048;-78
2021/12/27 05:55:47;;;;;;;42.55;19.40;;;0.20;99.90;;;;;;5097692;28;20059;-78
2021/12/27 05:58:13;;;;;;;47.13;20.02;;;0.20;99.90;;;;;;5096005;28;20051;-78
2021/12/27 06:00:39;;;;;;;51.30;20.20;;;0.20;99.90;;;;;;5096182;28;20467;-78
2021/12/27 06:03:05;;;;;;;49.25;20.35;;;0.20;99.90;;;;;;5097644;28;20048;-78
2021/12/27 06:05:31;;;;;;;49.33;21.42;;;0.30;99.90;;;;;;5097455;28;20036;-78
2021/12/27 06:07:57;;;;;;;51.47;20.90;;;0.30;99.90;;;;;;5097325;28;20544;-78
2021/12/27 06:10:23;;;;;;;47.63;20.52;;;0.30;99.90;;;;;;5096171;28;20040;-78
2021/12/27 06:12:49;;;;;;;51.35;21.48;;;0.30;99.90;;;;;;5097206;28;20044;-78
2021/12/27 06:15:15;;;;;;;53.00;22.13;;;0.20;99.90;;;;;;5097102;28;20113;-78
2021/12/27 06:17:42;;;;;;;56.75;22.38;;;0.20;99.90;;;;;;5097438;28;20051;-78
2021/12/27 06:20:11;;;;;;;51.55;21.65;;;0.20;99.90;;;;;;5095818;28;20093;-78
2021/12/27 06:22:41;;;;;;;55.70;21.60;;;0.20;99.90;;;;;;5095740;28;20044;-79
2021/12/27 06:25:07;;;;;;;57.10;22.38;;;0.20;99.90;;;;;;5097020;28;20040;-78
2021/12/27 06:27:33;;;;;;;51.55;21.48;;;0.20;99.90;;;;;;5078681;28;20135;-78
2021/12/27 06:30:00;;;;;;;59.13;22.63;;;0.20;99.90;;;;;;5097198;28;20043;-78
2021/12/27 06:32:26;;;;;;;56.50;22.98;;;0.20;99.90;;;;;;5096838;28;20040;-78
2021/12/27 06:34:52;;;;;;;56.63;23.08;;;0.20;99.90;;;;;;5095621;28;20114;-78
2021/12/27 06:37:18;;;;;;;64.65;24.90;;;0.20;99.90;;;;;;5096903;28;20089;-78
2021/12/27 06:39:44;;;;;;;61.88;23.45;;;0.20;99.90;;;;;;5095550;28;20131;-78
2021/12/27 06:42:09;;;;;;;64.68;24.40;;;0.20;99.90;;;;;;5095497;28;20055;-78
2021/12/27 06:44:35;;;;;;;59.35;22.65;;;0.20;99.90;;;;;;5095504;28;20048;-78
2021/12/27 06:47:01;;;;;;;65.22;24.85;;;0.20;99.90;;;;;;5096355;28;20053;-78
2021/12/27 06:49:28;;;;;;;60.40;23.75;;;0.20;99.90;;;;;;5096621;28;20075;-78
2021/12/27 06:51:54;;;;;;;65.03;25.83;;;0.20;99.90;;;;;;5095521;28;20047;-78
2021/12/27 06:54:19;;;;;;;67.85;25.42;;;0.20;99.90;;;;;;5096405;28;20036;-78
2021/12/27 06:56:46;;;;;;;69.60;25.80;;;0.20;99.90;;;;;;5095897;28;20040;-78
2021/12/27 06:59:11;;;;;;;70.32;24.60;;;0.20;99.90;;;;;;5096214;28;20044;-78
2021/12/27 07:01:37;;;;;;;63.47;25.52;;;0.30;99.90;;;;;;5096423;28;20044;-78
2021/12/27 07:04:03;;;;;;;74.47;25.65;;;0.30;99.90;;;;;;5096318;28;20503;-78
2021/12/27 07:06:28;;;;;;;73.90;25.48;;;0.20;99.90;;;;;;5096316;28;20131;-78
2021/12/27 07:08:54;;;;;;;84.35;27.00;;;0.30;99.90;;;;;;5096001;28;20126;-78
2021/12/27 07:11:20;;;;;;;80.32;28.23;;;0.30;99.90;;;;;;5096066;28;20097;-78
2021/12/27 07:13:45;;;;;;;84.60;26.95;;;0.30;99.90;;;;;;5095882;28;20048;-78
2021/12/27 07:16:11;;;;;;;91.00;26.88;;;0.30;99.90;;;;;;5094367;28;20056;-78
2021/12/27 07:18:36;;;;;;;103.15;28.98;;;0.30;99.90;;;;;;5096164;28;20418;-78
2021/12/27 07:21:02;;;;;;;105.13;27.58;;;0.30;99.90;;;;;;5077921;28;20342;-78
2021/12/27 07:23:28;;;;;;;93.10;28.08;;;0.30;99.90;;;;;;5095872;28;20042;-78
2021/12/27 07:25:54;;;;;;;111.28;29.02;;;0.30;99.90;;;;;;5094533;28;20551;-78
2021/12/27 07:28:19;;;;;;;100.07;28.45;;;0.30;99.90;;;;;;5094533;28;20394;-79
2021/12/27 07:30:45;;;;;;;100.13;29.13;;;0.30;99.90;;;;;;5095796;28;20071;-78
2021/12/27 07:33:11;;;;;;;115.45;30.70;;;0.30;99.90;;;;;;5095749;28;20040;-78
2021/12/27 07:35:37;;;;;;;114.90;29.52;;;0.40;99.90;;;;;;5095883;28;20501;-78
2021/12/27 07:38:03;;;;;;;120.28;31.23;;;0.30;99.90;;;;;;5094027;28;20056;-78
2021/12/27 07:40:29;;;;;;;103.10;29.85;;;0.30;99.90;;;;;;5094594;28;20044;-78
2021/12/27 07:42:55;;;;;;;121.38;31.63;;;0.30;99.90;;;;;;5094167;28;20046;-78
2021/12/27 07:45:20;;;;;;;117.22;29.85;;;0.40;99.90;;;;;;5094058;28;20040;-78
2021/12/27 07:47:46;;;;;;;120.25;31.75;;;0.40;99.90;;;;;;5095545;28;20039;-78
2021/12/27 07:50:12;;;;;;;134.55;30.75;;;0.40;99.90;;;;;;5094196;28;20044;-78
2021/12/27 07:52:37;;;;;;;114.13;30.23;;;0.40;99.90;;;;;;5095410;28;20503;-78
2021/12/27 07:55:04;;;;;;;132.00;31.85;;;0.40;99.90;;;;;;5095198;28;20039;-78
2021/12/27 07:57:29;;;;;;;113.25;30.13;;;0.40;99.90;;;;;;5095111;28;20097;-78
2021/12/27 07:59:55;;;;;;;121.10;29.05;;;0.40;99.90;;;;;;5094961;28;20040;-78
2021/12/27 08:02:21;;;;;;;129.48;32.03;;;0.50;99.90;;;;;;5093718;28;20145;-78
2021/12/27 08:04:46;;;;;;;143.18;32.65;;;0.50;99.90;;;;;;5095108;28;20055;-78
2021/12/27 08:07:12;;;;;;;163.98;34.92;;;0.50;99.90;;;;;;5094073;28;20513;-78
2021/12/27 08:09:38;;;;;;;161.07;34.53;;;0.40;99.90;;;;;;5095055;28;20154;-78
2021/12/27 08:12:05;;;;;;;135.77;33.20;;;0.50;99.90;;;;;;5094774;28;20474;-78
2021/12/27 08:14:31;;;;;;;132.80;32.50;;;0.50;99.90;;;;;;5093368;28;20041;-79
2021/12/27 08:16:57;;;;;;;129.93;31.92;;;0.50;99.90;;;;;;5094791;28;20075;-79
2021/12/27 08:19:22;;;;;;;124.03;33.60;;;0.50;99.90;;;;;;5094005;28;20040;-80
2021/12/27 08:21:48;;;;;;;125.43;31.00;;;1.20;99.90;;;;;;5077026;28;20055;-79
2021/12/27 08:24:14;;;;;;;129.80;32.90;;;0.60;99.90;;;;;;5094772;28;20395;-79
2021/12/27 08:26:40;;;;;;;140.57;32.75;;;0.60;99.90;;;;;;5094987;28;20039;-80
2021/12/27 08:29:10;;;;;;;132.57;30.65;;;0.60;99.90;;;;;;5094981;28;20498;-79
2021/12/27 08:31:36;;;;;;;134.43;31.17;;;0.60;99.90;;;;;;5093292;28;20048;-79
2021/12/27 08:34:02;;;;;;;121.80;31.30;;;0.60;99.90;;;;;;5087975;28;20040;-79
2021/12/27 08:36:28;;;;;;;116.75;29.50;;;0.70;99.90;;;;;;5088728;28;20544;-80
2021/12/27 08:38:53;;;;;;;142.00;31.95;;;0.60;99.90;;;;;;5095249;28;20047;-79
2021/12/27 08:41:19;;;;;;;123.53;30.15;;;0.70;99.90;;;;;;5094695;28;20109;-79
2021/12/27 08:43:46;;;;;;;131.20;30.23;;;0.70;99.90;;;;;;5094392;28;20044;-79
2021/12/27 08:46:12;;;;;;;125.15;31.65;;;0.70;99.90;;;;;;5094232;28;20445;-80
2021/12/27 08:48:38;;;;;;;116.03;30.55;;;0.70;99.90;;;;;;5093283;28;20062;-79
2021/12/27 08:51:04;;;;;;;115.07;30.50;;;0.70;99.90;;;;;;5094250;28;20040;-79
2021/12/27 08:53:29;;;;;;;112.07;29.42;;;0.80;99.90;;;;;;5094259;28;20044;-79
2021/12/27 08:55:55;;;;;;;114.88;29.27;;;0.80;99.90;;;;;;5094447;28;20433;-79
2021/12/27 08:58:21;;;;;;;101.93;27.10;;;0.80;99.90;;;;;;5094177;28;20428;-79
2021/12/27 09:00:47;;;;;;;93.90;25.00;;;0.80;99.90;;;;;;5094599;28;20122;-79
2021/12/27 09:03:13;;;;;;;100.05;27.27;;;0.80;99.90;;;;;;5094162;28;20048;-79
2021/12/27 09:05:42;;;;;;;104.35;27.45;;;0.90;99.90;;;;;;5094581;28;20667;-80
2021/12/27 09:08:08;;;;;;;111.15;26.67;;;0.90;99.90;;;;;;5092909;28;20048;-79
2021/12/27 09:10:34;;;;;;;88.43;25.02;;;0.90;99.90;;;;;;5094036;28;20440;-79
2021/12/27 09:13:00;;;;;;;106.03;26.67;;;0.90;99.90;;;;;;5094077;28;20036;-79
2021/12/27 09:15:28;;;;;;;103.38;27.02;;;0.90;99.90;;;;;;5093660;28;20101;-79
2021/12/27 09:17:54;;;;;;;102.90;27.65;;;0.90;99.90;;;;;;5093422;28;20099;-79
2021/12/27 09:20:20;;;;;;;98.97;26.70;;;1.00;99.90;;;;;;5094081;28;20043;-79
2021/12/27 09:22:45;;;;;;;100.85;26.77;;;1.00;99.90;;;;;;5094256;28;20048;-79
2021/12/27 09:25:11;;;;;;;110.68;27.65;;;1.00;99.90;;;;;;5091161;28;20048;-79
2021/12/27 09:27:37;;;;;;;131.88;28.85;;;1.00;99.90;;;;;;5075999;28;20071;-79
2021/12/27 09:30:04;;;;;;;119.80;28.88;;;1.10;99.90;;;;;;5094355;28;20048;-81
2021/12/27 09:32:30;;;;;;;146.75;30.67;;;1.00;99.90;;;;;;5094625;28;20051;-79
2021/12/27 09:34:55;;;;;;;130.40;29.42;;;1.10;99.90;;;;;;5092492;28;20048;-79
2021/12/27 09:37:21;;;;;;;127.15;30.27;;;1.10;99.90;;;;;;5093949;28;20052;-79
2021/12/27 09:39:53;;;;;;;137.43;29.27;;;1.10;99.90;;;;;;5093770;28;20040;-80
2021/12/27 09:42:21;;;;;;;123.90;28.13;;;1.10;99.90;;;;;;5092300;28;20059;-79
2021/12/27 09:44:47;;;;;;;148.40;30.55;;;1.20;99.90;;;;;;5093640;28;20126;-79
2021/12/27 09:47:12;;;;;;;145.60;31.73;;;1.20;99.90;;;;;;5073182;28;20036;-79
2021/12/27 09:49:38;;;;;;;135.63;29.73;;;1.20;99.90;;;;;;5073074;28;20568;-80
2021/12/27 09:52:04;;;;;;;138.82;31.45;;;1.20;99.90;;;;;;5073669;28;20418;-80
2021/12/27 09:54:30;;;;;;;146.90;31.95;;;1.20;99.90;;;;;;5073694;28;20048;-79
2021/12/27 09:56:56;;;;;;;161.23;32.50;;;1.30;99.90;;;;;;5073392;28;20075;-79
2021/12/27 09:59:22;;;;;;;135.23;30.88;;;1.30;99.90;;;;;;5073359;28;20041;-80
2021/12/27 10:01:48;;;;;;;127.03;28.95;;;1.30;99.90;;;;;;5073250;28;20044;-79
2021/12/27 10:04:14;;;;;;;206.10;34.92;;;1.30;99.90;;;;;;5074387;28;20048;-79
2021/12/27 10:06:41;;;;;;;125.22;30.05;;;1.40;99.90;;;;;;5074426;28;20071;-80
2021/12/27 10:09:06;;;;;;;159.73;30.98;;;1.40;99.90;;;;;;5072761;28;20090;-79
2021/12/27 10:11:38;;;;;;;157.20;30.75;;;1.40;99.90;;;;;;5072045;28;20498;-79
2021/12/27 10:14:03;;;;;;;171.45;33.03;;;1.50;99.90;;;;;;5073866;28;20036;-79
2021/12/27 10:16:31;;;;;;;171.10;31.92;;;1.50;99.90;;;;;;5072128;28;20059;-80
2021/12/27 10:18:59;;;;;;;162.50;31.58;;;1.50;99.90;;;;;;5072267;28;20049;-80
2021/12/27 10:21:25;;;;;;;190.10;35.72;;;1.80;99.90;;;;;;5056078;28;20138;-80
2021/12/27 10:24:16;;;;;;;163.32;31.75;;;2.00;99.90;;;;;;5073736;28;20049;-80
2021/12/27 10:26:44;;;;;;;184.85;34.53;;;1.60;99.90;;;;;;5073953;28;20083;-80
2021/12/27 10:29:17;;;;;;;194.50;33.72;;;1.60;99.90;;;;;;5072192;28;20049;-80
2021/12/27 10:31:57;;;;;;;145.68;31.67;;;1.60;99.90;;;;;;5077016;28;20048;-80
2021/12/27 10:34:32;;;;;;;157.18;30.65;;;1.70;99.90;;;;;;5075787;28;20086;-79
2021/12/27 10:37:14;;;;;;;153.13;32.85;;;1.60;99.90;;;;;;5075999;28;20045;-80
2021/12/27 10:39:45;;;;;;;175.82;32.95;;;1.70;99.90;;;;;;5075855;28;20119;-80
2021/12/27 10:42:21;;;;;;;166.80;33.63;;;1.80;99.90;;;;;;5077166;28;20060;-80
2021/12/27 10:44:49;;;;;;;177.80;32.22;;;1.80;99.90;;;;;;5075958;28;20072;-79
2021/12/27 10:47:38;;;;;;;145.18;30.58;;;2.40;99.90;;;;;;5059456;28;20089;-79
2021/12/27 10:50:13;;;;;;;155.07;30.77;;;1.90;99.90;;;;;;5078659;28;20505;-79
2021/12/27 10:52:49;;;;;;;113.82;28.15;;;1.90;99.90;;;;;;5093993;28;20505;-80
2021/12/27 10:55:40;;;;;;;135.55;30.60;;;1.90;99.90;;;;;;5076724;28;20044;-80
2021/12/27 10:58:24;;;;;;;129.82;30.13;;;1.90;99.90;;;;;;5075997;28;20052;-80
2021/12/27 11:00:59;;;;;;;103.72;27.30;;;1.90;99.90;;;;;;5076193;28;20064;-80
2021/12/27 11:03:36;;;;;;;116.57;27.17;;;2.00;99.90;;;;;;5077263;28;20040;-80
2021/12/27 11:06:04;;;;;;;96.07;26.45;;;2.00;99.90;;;;;;5082396;22;20053;-80
2021/12/27 11:08:32;;;;;;;98.80;26.15;;;2.00;99.90;;;;;;5039595;28;20045;-80
2021/12/27 11:10:59;;;;;;;85.93;24.35;;;2.00;99.90;;;;;;5039480;28;20071;-79
2021/12/27 11:13:26;;;;;;;109.70;26.42;;;2.10;99.90;;;;;;5056671;28;20049;-80
2021/12/27 11:15:53;;;;;;;96.90;25.98;;;2.10;99.90;;;;;;5056802;28;20049;-79
2021/12/27 11:18:19;;;;;;;104.15;26.33;;;2.10;99.90;;;;;;5038338;28;20056;-80
2021/12/27 11:20:47;;;;;;;92.70;25.33;;;2.10;99.90;;;;;;5056480;28;20111;-80
2021/12/27 11:23:14;;;;;;;105.07;27.00;;;2.60;99.90;;;;;;5056991;28;20136;-80
2021/12/27 11:25:45;;;;;;;94.78;25.48;;;2.10;99.90;;;;;;5040532;28;20098;-80
2021/12/27 11:28:38;;;;;;;104.65;25.88;;;2.10;99.90;;;;;;5057551;28;20519;-80
2021/12/27 11:31:15;;;;;;;99.47;26.40;;;2.10;99.90;;;;;;5057610;28;20048;-80
2021/12/27 11:34:02;;;;;;;101.30;26.48;;;2.10;99.90;;;;;;5055087;28;20084;-80
2021/12/27 11:36:30;;;;;;;102.20;26.45;;;2.10;99.90;;;;;;5055206;28;20437;-80
2021/12/27 11:38:57;;;;;;;115.15;28.27;;;2.00;99.90;;;;;;5057630;28;20045;-80
2021/12/27 11:41:34;;;;;;;108.15;26.42;;;2.10;99.90;;;;;;5057135;28;20033;-80
2021/12/27 11:44:06;;;;;;;98.18;26.08;;;2.20;99.90;;;;;;5057582;28;20052;-80
2021/12/27 11:46:52;;;;;;;107.60;26.90;;;2.20;99.90;;;;;;5056784;28;20041;-80
2021/12/27 11:49:42;;;;;;;119.10;28.48;;;2.20;99.90;;;;;;5042879;28;20515;-80
2021/12/27 11:52:24;;;;;;;111.53;28.00;;;2.30;99.90;;;;;;5056807;28;20048;-80
2021/12/27 11:55:00;;;;;;;134.63;29.60;;;2.30;99.90;;;;;;5055017;28;20402;-80
2021/12/27 11:57:45;;;;;;;148.10;31.27;;;2.30;99.90;;;;;;5054830;28;20049;-80
2021/12/27 12:00:26;;;;;;;133.10;29.80;;;2.40;99.90;;;;;;5039220;28;20139;-80
2021/12/27 12:05:34;;;;;;;163.18;32.35;;;2.40;99.90;;;;;;5035347;28;20037;-83
2021/12/27 12:08:00;;;;;;;153.32;30.13;;;2.40;99.90;;;;;;5031749;28;20137;-82
2021/12/27 12:10:26;;;;;;;144.15;31.50;;;2.40;99.90;;;;;;5035302;28;20113;-89
2021/12/27 12:13:14;;;;;;;174.43;32.17;;;2.40;99.90;;;;;;5035060;28;20041;-81
2021/12/27 12:16:14;;;;;;;157.85;31.85;;;2.40;99.90;;;;;;5031451;28;20109;-82
2021/12/27 12:19:09;;;;;;;191.20;34.25;;;2.40;99.90;;;;;;5034624;28;20132;-86
2021/12/27 12:21:35;;;;;;;162.88;32.05;;;2.40;99.90;;;;;;4997301;28;20554;-87
2021/12/27 12:24:07;;;;;;;168.07;34.10;;;2.40;99.90;;;;;;4997094;28;20058;-85
2021/12/27 12:27:00;;;;;;;167.88;35.22;;;2.40;99.90;;;;;;5013060;28;20064;-88
2021/12/27 12:29:44;;;;;;;152.57;31.83;;;2.50;99.90;;;;;;5014284;28;20180;-84
2021/12/27 12:32:13;;;;;;;195.15;34.00;;;2.50;99.90;;;;;;4997792;28;20050;-90
2021/12/27 12:34:40;;;;;;;144.18;30.65;;;2.50;99.90;;;;;;5014139;28;20058;-82
2021/12/27 12:37:09;;;;;;;160.27;33.75;;;2.60;99.90;;;;;;5017410;28;20057;-82
2021/12/27 12:39:41;;;;;;;160.75;33.38;;;2.60;99.90;;;;;;5011391;28;20061;-82